sensor_id;sensor_type;location;lat;lon;timestamp;pressure;altitude;pressure_sealevel;temperature;humidity
67377;BME280;54261;46.086;6.588;2023-05-23T00:00:10;92473.00;;;15.89;41.44
67377;BME280;54261;46.086;6.588;2023-05-23T00:05:17;92464.56;;;15.58;42.20
67377;BME280;54261;46.086;6.588;2023-05-23T00:10:19;92457.00;;;16.16;41.07
67377;BME280;54261;46.086;6.588;2023-05-23T00:15:21;92489.56;;;16.19;40.68
67377;BME280;54261;46.086;6.588;2023-05-23T00:20:23;92477.47;;;15.97;40.94
67377;BME280;54261;46.086;6.588;2023-05-23T00:25:25;92473.84;;;16.25;40.68
67377;BME280;54261;46.086;6.588;2023-05-23T00:30:34;92448.06;;;15.79;40.83
67377;BME280;54261;46.086;6.588;2023-05-23T00:35:37;92479.25;;;16.25;40.73
67377;BME280;54261;46.086;6.588;2023-05-23T00:40:39;92482.31;;;16.43;40.17
67377;BME280;54261;46.086;6.588;2023-05-23T00:45:41;92476.16;;;16.07;40.47
67377;BME280;54261;46.086;6.588;2023-05-23T00:50:43;92469.28;;;16.29;40.17
67377;BME280;54261;46.086;6.588;2023-05-23T00:55:46;92482.94;;;16.17;40.40
67377;BME280;54261;46.086;6.588;2023-05-23T01:00:48;92472.75;;;16.10;40.42
67377;BME280;54261;46.086;6.588;2023-05-23T01:05:51;92479.94;;;16.22;39.60
67377;BME280;54261;46.086;6.588;2023-05-23T01:10:55;92470.31;;;15.73;40.64
67377;BME280;54261;46.086;6.588;2023-05-23T01:16:08;92478.13;;;15.94;40.95
67377;BME280;54261;46.086;6.588;2023-05-23T01:21:16;92486.66;;;15.44;40.87
67377;BME280;54261;46.086;6.588;2023-05-23T01:26:35;92468.84;;;15.59;40.73
67377;BME280;54261;46.086;6.588;2023-05-23T01:31:42;92476.16;;;16.07;40.22
67377;BME280;54261;46.086;6.588;2023-05-23T01:36:49;92469.50;;;16.04;39.79
67377;BME280;54261;46.086;6.588;2023-05-23T01:41:52;92461.75;;;15.71;40.09
67377;BME280;54261;46.086;6.588;2023-05-23T01:46:54;92459.81;;;15.07;40.94
67377;BME280;54261;46.086;6.588;2023-05-23T01:51:58;92460.50;;;15.20;41.98
67377;BME280;54261;46.086;6.588;2023-05-23T01:57:02;92450.16;;;15.38;41.41
67377;BME280;54261;46.086;6.588;2023-05-23T02:02:04;92454.97;;;15.45;40.96
67377;BME280;54261;46.086;6.588;2023-05-23T02:07:06;92453.94;;;14.89;41.79
67377;BME280;54261;46.086;6.588;2023-05-23T02:12:08;92451.63;;;15.19;41.78
67377;BME280;54261;46.086;6.588;2023-05-23T02:17:10;92454.31;;;15.19;41.27
67377;BME280;54261;46.086;6.588;2023-05-23T02:22:13;92457.41;;;14.61;41.91
67377;BME280;54261;46.086;6.588;2023-05-23T02:27:15;92455.69;;;14.97;41.76
67377;BME280;54261;46.086;6.588;2023-05-23T02:32:17;92461.44;;;14.95;41.47
67377;BME280;54261;46.086;6.588;2023-05-23T02:37:19;92465.47;;;14.73;42.13
67377;BME280;54261;46.086;6.588;2023-05-23T02:42:21;92468.50;;;14.72;42.18
67377;BME280;54261;46.086;6.588;2023-05-23T02:47:24;92473.47;;;14.98;41.67
67377;BME280;54261;46.086;6.588;2023-05-23T02:52:26;92469.38;;;15.04;41.00
67377;BME280;54261;46.086;6.588;2023-05-23T02:57:28;92466.69;;;15.04;40.92
67377;BME280;54261;46.086;6.588;2023-05-23T03:02:30;92471.91;;;15.13;40.88
67377;BME280;54261;46.086;6.588;2023-05-23T03:07:32;92468.84;;;15.27;40.39
67377;BME280;54261;46.086;6.588;2023-05-23T03:12:34;92468.91;;;14.86;41.57
67377;BME280;54261;46.086;6.588;2023-05-23T03:17:37;92466.28;;;15.18;40.85
67377;BME280;54261;46.086;6.588;2023-05-23T03:22:39;92465.31;;;14.82;41.39
67377;BME280;54261;46.086;6.588;2023-05-23T03:27:44;92468.47;;;14.84;41.10
67377;BME280;54261;46.086;6.588;2023-05-23T03:32:46;92474.22;;;14.82;41.53
67377;BME280;54261;46.086;6.588;2023-05-23T03:37:48;92473.03;;;14.96;41.36
67377;BME280;54261;46.086;6.588;2023-05-23T03:43:01;92476.44;;;15.09;40.89
67377;BME280;54261;46.086;6.588;2023-05-23T03:48:05;92471.16;;;14.84;41.29
67377;BME280;54261;46.086;6.588;2023-05-23T03:53:08;92468.41;;;14.96;41.30
67377;BME280;54261;46.086;6.588;2023-05-23T03:58:10;92486.16;;;14.81;40.82
67377;BME280;54261;46.086;6.588;2023-05-23T04:03:15;92471.75;;;15.06;41.33
67377;BME280;54261;46.086;6.588;2023-05-23T04:08:18;92471.16;;;15.13;40.62
67377;BME280;54261;46.086;6.588;2023-05-23T04:13:24;92476.38;;;14.77;41.30
67377;BME280;54261;46.086;6.588;2023-05-23T04:18:27;92486.38;;;14.76;41.07
67377;BME280;54261;46.086;6.588;2023-05-23T04:23:29;92479.81;;;14.90;41.36
67377;BME280;54261;46.086;6.588;2023-05-23T04:28:32;92491.09;;;14.51;41.72
67377;BME280;54261;46.086;6.588;2023-05-23T04:33:35;92491.94;;;14.96;41.99
67377;BME280;54261;46.086;6.588;2023-05-23T04:38:37;92491.91;;;15.08;41.21
67377;BME280;54261;46.086;6.588;2023-05-23T04:43:42;92495.31;;;15.21;41.00
67377;BME280;54261;46.086;6.588;2023-05-23T04:49:14;92494.66;;;14.02;42.92
67377;BME280;54261;46.086;6.588;2023-05-23T04:54:17;92492.63;;;14.64;42.92
67377;BME280;54261;46.086;6.588;2023-05-23T04:59:19;92505.16;;;14.85;42.53
67377;BME280;54261;46.086;6.588;2023-05-23T05:04:21;92488.09;;;14.27;43.67
67377;BME280;54261;46.086;6.588;2023-05-23T05:09:24;92494.50;;;15.05;43.25
67377;BME280;54261;46.086;6.588;2023-05-23T05:14:27;92494.66;;;13.89;45.23
67377;BME280;54261;46.086;6.588;2023-05-23T05:19:29;92498.31;;;14.75;44.16
67377;BME280;54261;46.086;6.588;2023-05-23T05:24:32;92501.31;;;14.86;43.92
67377;BME280;54261;46.086;6.588;2023-05-23T05:29:35;92496.31;;;15.01;44.01
67377;BME280;54261;46.086;6.588;2023-05-23T05:34:37;92498.81;;;14.65;44.62
67377;BME280;54261;46.086;6.588;2023-05-23T05:39:40;92496.50;;;15.36;43.69
67377;BME280;54261;46.086;6.588;2023-05-23T05:44:42;92474.53;;;15.25;43.51
67377;BME280;54261;46.086;6.588;2023-05-23T05:49:44;92476.25;;;15.30;43.63
67377;BME280;54261;46.086;6.588;2023-05-23T05:54:46;92489.91;;;15.21;43.87
67377;BME280;54261;46.086;6.588;2023-05-23T05:59:48;92477.22;;;15.70;43.72
67377;BME280;54261;46.086;6.588;2023-05-23T06:04:50;92483.84;;;15.57;43.08
67377;BME280;54261;46.086;6.588;2023-05-23T06:09:52;92458.47;;;15.45;43.62
67377;BME280;54261;46.086;6.588;2023-05-23T06:14:54;92484.25;;;15.91;43.50
67377;BME280;54261;46.086;6.588;2023-05-23T06:19:56;92480.03;;;15.58;43.35
67377;BME280;54261;46.086;6.588;2023-05-23T06:24:58;92478.09;;;15.74;43.59
67377;BME280;54261;46.086;6.588;2023-05-23T06:30:01;92483.13;;;15.92;43.67
67377;BME280;54261;46.086;6.588;2023-05-23T06:35:05;92486.13;;;16.38;42.56
67377;BME280;54261;46.086;6.588;2023-05-23T06:40:07;92486.34;;;16.14;42.65
67377;BME280;54261;46.086;6.588;2023-05-23T06:45:10;92482.13;;;15.04;44.71
67377;BME280;54261;46.086;6.588;2023-05-23T06:50:16;92480.50;;;15.79;44.48
67377;BME280;54261;46.086;6.588;2023-05-23T06:55:22;92479.16;;;16.57;42.79
67377;BME280;54261;46.086;6.588;2023-05-23T07:00:25;92472.28;;;16.24;42.32
67377;BME280;54261;46.086;6.588;2023-05-23T07:05:43;92470.19;;;16.01;43.66
67377;BME280;54261;46.086;6.588;2023-05-23T07:10:46;92484.72;;;16.64;41.91
67377;BME280;54261;46.086;6.588;2023-05-23T07:16:04;92473.84;;;13.65;46.69
67377;BME280;54261;46.086;6.588;2023-05-23T07:21:09;92481.16;;;14.02;47.32
67377;BME280;54261;46.086;6.588;2023-05-23T07:26:11;92456.19;;;15.31;44.32
67377;BME280;54261;46.086;6.588;2023-05-23T07:31:19;92474.03;;;16.00;43.98
67377;BME280;54261;46.086;6.588;2023-05-23T07:36:21;92479.84;;;14.77;44.96
67377;BME280;54261;46.086;6.588;2023-05-23T07:41:25;92468.06;;;13.04;50.31
67377;BME280;54261;46.086;6.588;2023-05-23T07:46:27;92468.97;;;13.21;51.24
67377;BME280;54261;46.086;6.588;2023-05-23T07:51:30;92472.47;;;13.46;51.93
67377;BME280;54261;46.086;6.588;2023-05-23T07:56:33;92464.19;;;12.93;51.53
67377;BME280;54261;46.086;6.588;2023-05-23T08:01:35;92467.56;;;12.47;52.94
67377;BME280;54261;46.086;6.588;2023-05-23T08:06:40;92464.41;;;13.46;51.38
67377;BME280;54261;46.086;6.588;2023-05-23T08:12:00;92465.00;;;14.42;48.66
67377;BME280;54261;46.086;6.588;2023-05-23T08:17:03;92461.19;;;15.45;45.91
67377;BME280;54261;46.086;6.588;2023-05-23T08:22:05;92467.13;;;13.96;49.22
67377;BME280;54261;46.086;6.588;2023-05-23T08:27:07;92468.91;;;12.41;52.93
67377;BME280;54261;46.086;6.588;2023-05-23T08:32:10;92460.28;;;13.03;52.03
67377;BME280;54261;46.086;6.588;2023-05-23T08:37:12;92468.59;;;15.04;49.40
67377;BME280;54261;46.086;6.588;2023-05-23T08:42:15;92447.09;;;15.88;44.92
67377;BME280;54261;46.086;6.588;2023-05-23T08:47:18;92471.91;;;15.13;47.60
67377;BME280;54261;46.086;6.588;2023-05-23T08:52:28;92464.69;;;15.98;45.62
67377;BME280;54261;46.086;6.588;2023-05-23T08:57:35;92469.00;;;17.33;42.46
67377;BME280;54261;46.086;6.588;2023-05-23T09:02:52;92453.63;;;16.38;44.25
67377;BME280;54261;46.086;6.588;2023-05-23T09:08:13;92461.63;;;16.51;43.52
67377;BME280;54261;46.086;6.588;2023-05-23T09:13:16;92460.63;;;17.42;43.15
67377;BME280;54261;46.086;6.588;2023-05-23T09:18:33;92460.31;;;17.70;42.87
67377;BME280;54261;46.086;6.588;2023-05-23T09:23:38;92460.31;;;17.70;42.28
67377;BME280;54261;46.086;6.588;2023-05-23T09:28:43;92445.25;;;15.92;47.76
67377;BME280;54261;46.086;6.588;2023-05-23T09:33:46;92452.84;;;17.87;43.43
67377;BME280;54261;46.086;6.588;2023-05-23T09:38:50;92448.72;;;15.12;48.86
67377;BME280;54261;46.086;6.588;2023-05-23T09:43:53;92437.84;;;15.73;48.04
67377;BME280;54261;46.086;6.588;2023-05-23T09:48:55;92421.78;;;15.96;47.30
67377;BME280;54261;46.086;6.588;2023-05-23T09:53:58;92432.56;;;14.83;51.33
67377;BME280;54261;46.086;6.588;2023-05-23T09:59:01;92432.38;;;13.57;55.66
67377;BME280;54261;46.086;6.588;2023-05-23T10:04:04;92431.41;;;14.27;52.27
67377;BME280;54261;46.086;6.588;2023-05-23T10:09:10;92437.91;;;15.12;51.42
67377;BME280;54261;46.086;6.588;2023-05-23T10:14:16;92374.72;;;14.85;50.32
67377;BME280;54261;46.086;6.588;2023-05-23T10:19:27;92419.38;;;15.59;50.48
67377;BME280;54261;46.086;6.588;2023-05-23T10:24:33;92393.41;;;14.61;52.49
67377;BME280;54261;46.086;6.588;2023-05-23T10:29:35;92407.88;;;15.46;52.30
67377;BME280;54261;46.086;6.588;2023-05-23T10:45:18;92406.69;;;17.60;47.09
67377;BME280;54261;46.086;6.588;2023-05-23T10:50:34;92395.06;;;15.59;51.43
67377;BME280;54261;46.086;6.588;2023-05-23T10:55:36;92393.41;;;17.08;48.38
67377;BME280;54261;46.086;6.588;2023-05-23T11:00:38;92398.72;;;15.50;51.21
67377;BME280;54261;46.086;6.588;2023-05-23T11:05:52;92392.47;;;16.77;49.65
67377;BME280;54261;46.086;6.588;2023-05-23T11:11:03;92389.88;;;17.27;47.35
67377;BME280;54261;46.086;6.588;2023-05-23T11:16:25;92386.97;;;17.40;47.94
67377;BME280;54261;46.086;6.588;2023-05-23T11:21:28;92377.56;;;17.33;47.71
67377;BME280;54261;46.086;6.588;2023-05-23T11:26:31;92384.91;;;16.47;48.51
67377;BME280;54261;46.086;6.588;2023-05-23T11:31:36;92373.22;;;17.29;47.07
67377;BME280;54261;46.086;6.588;2023-05-23T11:36:38;92372.25;;;16.31;49.33
67377;BME280;54261;46.086;6.588;2023-05-23T11:41:41;92364.22;;;18.29;46.26
67377;BME280;54261;46.086;6.588;2023-05-23T11:46:59;92368.25;;;17.85;46.32
67377;BME280;54261;46.086;6.588;2023-05-23T11:52:02;92378.22;;;17.73;46.74
67377;BME280;54261;46.086;6.588;2023-05-23T11:57:05;92355.81;;;18.41;42.87
67377;BME280;54261;46.086;6.588;2023-05-23T12:02:06;92360.50;;;17.10;46.70
67377;BME280;54261;46.086;6.588;2023-05-23T12:07:09;92359.88;;;17.43;47.42
67377;BME280;54261;46.086;6.588;2023-05-23T12:12:11;92348.44;;;17.81;45.74
67377;BME280;54261;46.086;6.588;2023-05-23T12:17:13;92360.63;;;18.21;45.67
67377;BME280;54261;46.086;6.588;2023-05-23T12:22:21;92353.94;;;17.34;46.57
67377;BME280;54261;46.086;6.588;2023-05-23T12:27:34;92344.06;;;18.30;44.78
67377;BME280;54261;46.086;6.588;2023-05-23T12:32:39;92355.31;;;17.47;47.34
67377;BME280;54261;46.086;6.588;2023-05-23T12:37:45;92352.72;;;17.55;47.37
67377;BME280;54261;46.086;6.588;2023-05-23T12:42:54;92353.50;;;18.81;44.99
67377;BME280;54261;46.086;6.588;2023-05-23T12:47:56;92352.91;;;17.42;44.58
67377;BME280;54261;46.086;6.588;2023-05-23T12:52:58;92356.19;;;18.74;43.28
67377;BME280;54261;46.086;6.588;2023-05-23T12:58:00;92344.38;;;20.01;41.12
67377;BME280;54261;46.086;6.588;2023-05-23T13:03:02;92374.63;;;20.63;39.69
67377;BME280;54261;46.086;6.588;2023-05-23T13:08:04;92381.84;;;21.62;36.31
67377;BME280;54261;46.086;6.588;2023-05-23T13:13:07;92379.28;;;19.85;38.37
67377;BME280;54261;46.086;6.588;2023-05-23T13:18:09;92365.69;;;20.66;36.92
67377;BME280;54261;46.086;6.588;2023-05-23T13:23:10;92390.78;;;21.81;36.39
67377;BME280;54261;46.086;6.588;2023-05-23T13:28:13;92388.41;;;21.18;35.67
67377;BME280;54261;46.086;6.588;2023-05-23T13:33:15;92409.72;;;20.01;39.02
67377;BME280;54261;46.086;6.588;2023-05-23T13:38:17;92411.38;;;18.17;41.74
67377;BME280;54261;46.086;6.588;2023-05-23T13:43:19;92408.47;;;19.88;40.29
67377;BME280;54261;46.086;6.588;2023-05-23T13:48:21;92400.56;;;21.67;37.02
67377;BME280;54261;46.086;6.588;2023-05-23T13:53:23;92404.84;;;21.65;36.51
67377;BME280;54261;46.086;6.588;2023-05-23T13:58:25;92398.03;;;22.67;35.11
67377;BME280;54261;46.086;6.588;2023-05-23T14:03:27;92398.31;;;22.91;35.33
67377;BME280;54261;46.086;6.588;2023-05-23T14:08:29;92399.78;;;23.10;34.57
67377;BME280;54261;46.086;6.588;2023-05-23T14:13:31;92402.47;;;23.25;34.90
67377;BME280;54261;46.086;6.588;2023-05-23T14:18:34;92356.06;;;21.99;36.40
67377;BME280;54261;46.086;6.588;2023-05-23T14:23:36;92409.50;;;23.22;34.85
67377;BME280;54261;46.086;6.588;2023-05-23T14:28:38;92419.19;;;23.38;34.31
67377;BME280;54261;46.086;6.588;2023-05-23T14:33:40;92402.72;;;23.45;34.29
67377;BME280;54261;46.086;6.588;2023-05-23T14:38:42;92403.16;;;23.93;33.45
67377;BME280;54261;46.086;6.588;2023-05-23T14:43:46;92396.13;;;23.39;34.07
67377;BME280;54261;46.086;6.588;2023-05-23T14:48:47;92394.59;;;23.31;34.16
67377;BME280;54261;46.086;6.588;2023-05-23T14:53:49;92406.88;;;22.97;34.15
67377;BME280;54261;46.086;6.588;2023-05-23T14:58:52;92393.97;;;23.01;33.91
67377;BME280;54261;46.086;6.588;2023-05-23T15:03:54;92403.41;;;22.89;33.82
67377;BME280;54261;46.086;6.588;2023-05-23T15:08:56;92403.69;;;21.51;36.23
67377;BME280;54261;46.086;6.588;2023-05-23T15:13:57;92401.06;;;22.88;34.39
67377;BME280;54261;46.086;6.588;2023-05-23T15:19:00;92387.63;;;23.15;33.82
67377;BME280;54261;46.086;6.588;2023-05-23T15:24:02;92384.91;;;22.22;36.37
67377;BME280;54261;46.086;6.588;2023-05-23T15:29:04;92358.38;;;20.85;38.89
67377;BME280;54261;46.086;6.588;2023-05-23T15:34:07;92356.06;;;21.05;38.45
67377;BME280;54261;46.086;6.588;2023-05-23T15:39:10;92359.78;;;20.42;38.70
67377;BME280;54261;46.086;6.588;2023-05-23T15:44:12;92349.53;;;20.17;36.08
67377;BME280;54261;46.086;6.588;2023-05-23T15:49:18;92360.22;;;22.44;31.73
67377;BME280;54261;46.086;6.588;2023-05-23T15:54:27;92350.59;;;22.07;30.63
67377;BME280;54261;46.086;6.588;2023-05-23T15:59:29;92355.56;;;23.23;30.38
67377;BME280;54261;46.086;6.588;2023-05-23T16:04:34;92339.59;;;23.10;29.73
67377;BME280;54261;46.086;6.588;2023-05-23T16:09:37;92346.13;;;22.64;30.32
67377;BME280;54261;46.086;6.588;2023-05-23T16:14:38;92349.25;;;23.33;29.13
67377;BME280;54261;46.086;6.588;2023-05-23T16:19:40;92344.53;;;22.70;30.47
67377;BME280;54261;46.086;6.588;2023-05-23T16:24:42;92341.97;;;22.19;32.18
67377;BME280;54261;46.086;6.588;2023-05-23T16:29:44;92330.91;;;22.52;31.82
67377;BME280;54261;46.086;6.588;2023-05-23T16:34:46;92320.66;;;22.78;31.06
67377;BME280;54261;46.086;6.588;2023-05-23T16:39:55;92333.06;;;22.90;31.31
67377;BME280;54261;46.086;6.588;2023-05-23T16:44:57;92339.22;;;23.08;31.16
67377;BME280;54261;46.086;6.588;2023-05-23T16:49:58;92334.28;;;21.52;32.45
67377;BME280;54261;46.086;6.588;2023-05-23T16:55:02;92347.84;;;22.10;32.89
67377;BME280;54261;46.086;6.588;2023-05-23T17:00:05;92349.03;;;22.13;32.58
67377;BME280;54261;46.086;6.588;2023-05-23T17:05:08;92349.28;;;22.51;32.92
67377;BME280;54261;46.086;6.588;2023-05-23T17:10:10;92357.00;;;22.75;32.04
67377;BME280;54261;46.086;6.588;2023-05-23T17:15:12;92359.56;;;23.07;31.04
67377;BME280;54261;46.086;6.588;2023-05-23T17:20:14;92354.94;;;22.93;30.95
67377;BME280;54261;46.086;6.588;2023-05-23T17:25:16;92327.59;;;22.90;32.52
67377;BME280;54261;46.086;6.588;2023-05-23T17:30:18;92339.47;;;22.65;32.74
67377;BME280;54261;46.086;6.588;2023-05-23T17:35:20;92323.06;;;22.61;32.53
67377;BME280;54261;46.086;6.588;2023-05-23T17:40:25;92321.72;;;22.99;32.20
67377;BME280;54261;46.086;6.588;2023-05-23T17:45:27;92323.28;;;22.92;33.38
67377;BME280;54261;46.086;6.588;2023-05-23T17:50:29;92322.72;;;23.19;33.65
67377;BME280;54261;46.086;6.588;2023-05-23T17:55:31;92308.34;;;23.57;33.21
67377;BME280;54261;46.086;6.588;2023-05-23T18:00:33;92313.06;;;23.57;32.35
67377;BME280;54261;46.086;6.588;2023-05-23T18:05:35;92328.56;;;23.71;32.03
67377;BME280;54261;46.086;6.588;2023-05-23T18:10:37;92327.66;;;23.43;31.79
67377;BME280;54261;46.086;6.588;2023-05-23T18:15:39;92333.47;;;22.92;32.16
67377;BME280;54261;46.086;6.588;2023-05-23T18:20:41;92325.44;;;23.27;32.17
67377;BME280;54261;46.086;6.588;2023-05-23T18:25:43;92334.09;;;23.18;32.63
67377;BME280;54261;46.086;6.588;2023-05-23T18:30:45;92338.47;;;23.04;33.20
67377;BME280;54261;46.086;6.588;2023-05-23T18:35:48;92340.41;;;22.25;33.22
67377;BME280;54261;46.086;6.588;2023-05-23T18:40:50;92334.25;;;21.31;34.46
67377;BME280;54261;46.086;6.588;2023-05-23T18:45:52;92334.25;;;21.31;34.99
67377;BME280;54261;46.086;6.588;2023-05-23T18:50:54;92351.34;;;20.84;35.70
67377;BME280;54261;46.086;6.588;2023-05-23T18:55:56;92349.66;;;20.47;36.17
67377;BME280;54261;46.086;6.588;2023-05-23T19:04:02;92339.88;;;19.15;38.42
67377;BME280;54261;46.086;6.588;2023-05-23T19:09:04;92338.53;;;19.40;38.44
67377;BME280;54261;46.086;6.588;2023-05-23T19:14:10;92358.56;;;19.66;37.79
67377;BME280;54261;46.086;6.588;2023-05-23T19:19:12;92346.72;;;19.43;37.78
67377;BME280;54261;46.086;6.588;2023-05-23T19:24:15;92355.13;;;19.27;37.96
67377;BME280;54261;46.086;6.588;2023-05-23T19:29:17;92345.16;;;18.59;38.89
67377;BME280;54261;46.086;6.588;2023-05-23T19:34:19;92354.28;;;19.16;38.25
67377;BME280;54261;46.086;6.588;2023-05-23T19:39:21;92379.13;;;19.14;38.26
67377;BME280;54261;46.086;6.588;2023-05-23T19:44:23;92382.03;;;19.40;38.29
67377;BME280;54261;46.086;6.588;2023-05-23T19:49:24;92396.53;;;19.10;39.06
67377;BME280;54261;46.086;6.588;2023-05-23T19:54:26;92410.19;;;17.87;40.33
67377;BME280;54261;46.086;6.588;2023-05-23T19:59:28;92422.03;;;18.63;39.72
67377;BME280;54261;46.086;6.588;2023-05-23T20:04:30;92431.34;;;18.62;39.07
67377;BME280;54261;46.086;6.588;2023-05-23T20:09:32;92436.31;;;18.23;40.24
67377;BME280;54261;46.086;6.588;2023-05-23T20:14:34;92441.47;;;18.31;39.65
67377;BME280;54261;46.086;6.588;2023-05-23T20:19:36;92437.94;;;17.77;40.72
67377;BME280;54261;46.086;6.588;2023-05-23T20:24:38;92449.31;;;18.40;40.76
67377;BME280;54261;46.086;6.588;2023-05-23T20:29:40;92456.97;;;18.61;39.64
67377;BME280;54261;46.086;6.588;2023-05-23T20:34:42;92465.44;;;17.52;42.35
67377;BME280;54261;46.086;6.588;2023-05-23T20:39:44;92462.94;;;17.43;42.20
67377;BME280;54261;46.086;6.588;2023-05-23T20:44:48;92458.69;;;18.16;41.31
67377;BME280;54261;46.086;6.588;2023-05-23T20:49:50;92472.75;;;18.22;40.58
67377;BME280;54261;46.086;6.588;2023-05-23T20:54:52;92493.84;;;17.15;42.95
67377;BME280;54261;46.086;6.588;2023-05-23T20:59:55;92491.69;;;17.25;43.55
67377;BME280;54261;46.086;6.588;2023-05-23T21:04:57;92482.50;;;17.53;42.74
67377;BME280;54261;46.086;6.588;2023-05-23T21:09:59;92490.91;;;17.94;41.95
67377;BME280;54261;46.086;6.588;2023-05-23T21:15:01;92493.41;;;17.80;41.85
67377;BME280;54261;46.086;6.588;2023-05-23T21:20:05;92476.91;;;16.79;43.66
67377;BME280;54261;46.086;6.588;2023-05-23T21:25:07;92480.69;;;17.37;43.18
67377;BME280;54261;46.086;6.588;2023-05-23T21:30:10;92480.03;;;17.67;42.60
67377;BME280;54261;46.086;6.588;2023-05-23T21:35:12;92485.28;;;18.06;41.77
67377;BME280;54261;46.086;6.588;2023-05-23T21:40:13;92494.00;;;18.43;40.84
67377;BME280;54261;46.086;6.588;2023-05-23T21:45:15;92485.63;;;18.01;40.86
67377;BME280;54261;46.086;6.588;2023-05-23T21:50:17;92486.91;;;17.84;41.46
67377;BME280;54261;46.086;6.588;2023-05-23T21:55:19;92486.28;;;17.95;41.15
67377;BME280;54261;46.086;6.588;2023-05-23T22:00:21;92493.16;;;17.42;41.96
67377;BME280;54261;46.086;6.588;2023-05-23T22:05:23;92486.63;;;17.23;41.67
67377;BME280;54261;46.086;6.588;2023-05-23T22:10:25;92485.97;;;17.30;42.20
67377;BME280;54261;46.086;6.588;2023-05-23T22:15:27;92485.22;;;17.76;41.44
67377;BME280;54261;46.086;6.588;2023-05-23T22:20:29;92479.19;;;17.63;41.04
67377;BME280;54261;46.086;6.588;2023-05-23T22:25:31;92476.09;;;17.88;41.05
67377;BME280;54261;46.086;6.588;2023-05-23T22:30:33;92479.84;;;17.80;40.79
67377;BME280;54261;46.086;6.588;2023-05-23T22:35:35;92469.38;;;18.05;40.65
67377;BME280;54261;46.086;6.588;2023-05-23T22:40:36;92473.28;;;17.57;40.39
67377;BME280;54261;46.086;6.588;2023-05-23T22:45:38;92473.97;;;17.50;41.05
67377;BME280;54261;46.086;6.588;2023-05-23T22:50:42;92467.66;;;16.64;42.16
67377;BME280;54261;46.086;6.588;2023-05-23T22:55:45;92477.19;;;16.93;41.55
67377;BME280;54261;46.086;6.588;2023-05-23T23:00:46;92466.03;;;17.18;41.83
67377;BME280;54261;46.086;6.588;2023-05-23T23:05:48;92480.22;;;16.52;42.24
67377;BME280;54261;46.086;6.588;2023-05-23T23:10:51;92474.56;;;16.42;42.20
67377;BME280;54261;46.086;6.588;2023-05-23T23:15:53;92486.06;;;16.74;42.63
67377;BME280;54261;46.086;6.588;2023-05-23T23:20:55;92477.75;;;15.60;45.38
67377;BME280;54261;46.086;6.588;2023-05-23T23:25:57;92479.19;;;16.21;44.68
67377;BME280;54261;46.086;6.588;2023-05-23T23:31:00;92485.84;;;16.44;44.46
67377;BME280;54261;46.086;6.588;2023-05-23T23:36:02;92476.16;;;17.02;42.83
67377;BME280;54261;46.086;6.588;2023-05-23T23:41:04;92490.81;;;16.06;44.91
67377;BME280;54261;46.086;6.588;2023-05-23T23:46:05;92482.88;;;15.97;45.49
67377;BME280;54261;46.086;6.588;2023-05-23T23:51:07;92480.41;;;16.44;45.40
67377;BME280;54261;46.086;6.588;2023-05-23T23:56:10;92482.34;;;15.91;46.00
